Griffith Spring, Arkansas
Current Conditions -  °F | °C
As of 12:53 AM on Friday 31 Oct 2014 (Local Time) from KPBF Reporting Station
Clear Clear  
Wind Chill: 57°   Ceiling: Unl
Heat Index: 57°   Visibility: 10mi
Dew Point: 47°   Wind: 10mph
Humidity: 69%   Direction: 290°WNW
Pressure: 30.04"   Gusts: NA
Location:  33.924°N, 91.8685°W
Report Text: KPBF 310553Z AUTO 29009KT 10SM CLR 14/08 A3004 RMK AO2 SLP170 T01390083 10167 20133 402220067 58002
Loading
Personal Weather Stations






























Interactive Weather Map
Tropical Storm Tracking
New forecast layout! Learn more

10-Day Weather Forecast

Advertisements
Track Severe Weather on mobile